sensor_id;sensor_type;location;lat;lon;timestamp;P1;durP1;ratioP1;P2;durP2;ratioP2
6834;SDS011;3455;42.150;24.734;2023-04-03T00:01:30;1.63;;;1.10;;
6834;SDS011;3455;42.150;24.734;2023-04-03T00:03:57;2.60;;;1.37;;
6834;SDS011;3455;42.150;24.734;2023-04-03T00:06:25;1.97;;;1.40;;
6834;SDS011;3455;42.150;24.734;2023-04-03T00:08:53;1.50;;;1.10;;
6834;SDS011;3455;42.150;24.734;2023-04-03T00:11:20;1.00;;;1.00;;
6834;SDS011;3455;42.150;24.734;2023-04-03T00:13:47;2.63;;;1.20;;
6834;SDS011;3455;42.150;24.734;2023-04-03T00:16:13;3.17;;;1.20;;
6834;SDS011;3455;42.150;24.734;2023-04-03T00:18:41;1.50;;;1.40;;
6834;SDS011;3455;42.150;24.734;2023-04-03T00:21:08;5.00;;;2.00;;
6834;SDS011;3455;42.150;24.734;2023-04-03T00:23:39;2.60;;;1.30;;
6834;SDS011;3455;42.150;24.734;2023-04-03T00:26:06;3.23;;;1.37;;
6834;SDS011;3455;42.150;24.734;2023-04-03T00:28:33;1.63;;;1.20;;
6834;SDS011;3455;42.150;24.734;2023-04-03T00:30:59;1.40;;;1.23;;
6834;SDS011;3455;42.150;24.734;2023-04-03T00:33:26;1.33;;;1.20;;
6834;SDS011;3455;42.150;24.734;2023-04-03T00:35:53;1.30;;;1.20;;
6834;SDS011;3455;42.150;24.734;2023-04-03T00:38:20;1.60;;;1.33;;
6834;SDS011;3455;42.150;24.734;2023-04-03T00:40:48;1.00;;;1.00;;
6834;SDS011;3455;42.150;24.734;2023-04-03T00:43:16;1.80;;;1.03;;
6834;SDS011;3455;42.150;24.734;2023-04-03T00:45:45;2.93;;;1.20;;
6834;SDS011;3455;42.150;24.734;2023-04-03T00:48:13;1.20;;;1.10;;
6834;SDS011;3455;42.150;24.734;2023-04-03T00:50:43;1.73;;;1.63;;
6834;SDS011;3455;42.150;24.734;2023-04-03T00:53:12;1.10;;;1.10;;
6834;SDS011;3455;42.150;24.734;2023-04-03T00:55:42;1.27;;;1.17;;
6834;SDS011;3455;42.150;24.734;2023-04-03T00:58:11;1.33;;;1.10;;
6834;SDS011;3455;42.150;24.734;2023-04-03T01:00:41;1.33;;;1.17;;
6834;SDS011;3455;42.150;24.734;2023-04-03T01:03:12;2.07;;;1.03;;
6834;SDS011;3455;42.150;24.734;2023-04-03T01:05:39;1.20;;;1.10;;
6834;SDS011;3455;42.150;24.734;2023-04-03T01:08:06;3.30;;;1.07;;
6834;SDS011;3455;42.150;24.734;2023-04-03T01:10:33;1.10;;;1.00;;
6834;SDS011;3455;42.150;24.734;2023-04-03T01:13:00;1.50;;;1.40;;
6834;SDS011;3455;42.150;24.734;2023-04-03T01:15:28;1.27;;;1.17;;
6834;SDS011;3455;42.150;24.734;2023-04-03T01:18:00;1.43;;;1.17;;
6834;SDS011;3455;42.150;24.734;2023-04-03T01:23:42;1.23;;;1.10;;
6834;SDS011;3455;42.150;24.734;2023-04-03T01:26:19;1.07;;;1.07;;
6834;SDS011;3455;42.150;24.734;2023-04-03T01:28:46;0.90;;;0.90;;
6834;SDS011;3455;42.150;24.734;2023-04-03T01:31:18;1.10;;;1.03;;
6834;SDS011;3455;42.150;24.734;2023-04-03T01:33:50;1.50;;;1.40;;
6834;SDS011;3455;42.150;24.734;2023-04-03T01:36:17;3.17;;;1.30;;
6834;SDS011;3455;42.150;24.734;2023-04-03T01:38:46;1.40;;;1.20;;
6834;SDS011;3455;42.150;24.734;2023-04-03T01:41:13;1.20;;;1.20;;
6834;SDS011;3455;42.150;24.734;2023-04-03T01:43:40;1.50;;;1.30;;
6834;SDS011;3455;42.150;24.734;2023-04-03T01:46:07;1.53;;;1.43;;
6834;SDS011;3455;42.150;24.734;2023-04-03T01:48:34;1.40;;;1.30;;
6834;SDS011;3455;42.150;24.734;2023-04-03T01:51:02;1.30;;;1.20;;
6834;SDS011;3455;42.150;24.734;2023-04-03T01:53:29;1.33;;;1.30;;
6834;SDS011;3455;42.150;24.734;2023-04-03T01:55:55;2.00;;;1.00;;
6834;SDS011;3455;42.150;24.734;2023-04-03T01:58:22;1.20;;;1.20;;
6834;SDS011;3455;42.150;24.734;2023-04-03T02:00:49;1.37;;;1.27;;
6834;SDS011;3455;42.150;24.734;2023-04-03T02:03:17;1.63;;;1.53;;
6834;SDS011;3455;42.150;24.734;2023-04-03T02:05:43;1.80;;;1.70;;
6834;SDS011;3455;42.150;24.734;2023-04-03T02:08:12;4.20;;;1.63;;
6834;SDS011;3455;42.150;24.734;2023-04-03T02:10:39;1.90;;;1.80;;
6834;SDS011;3455;42.150;24.734;2023-04-03T02:13:06;1.83;;;1.50;;
6834;SDS011;3455;42.150;24.734;2023-04-03T02:15:33;2.97;;;1.70;;
6834;SDS011;3455;42.150;24.734;2023-04-03T02:17:59;2.83;;;1.80;;
6834;SDS011;3455;42.150;24.734;2023-04-03T02:20:26;1.70;;;1.60;;
6834;SDS011;3455;42.150;24.734;2023-04-03T02:22:53;2.23;;;1.97;;
6834;SDS011;3455;42.150;24.734;2023-04-03T02:25:21;2.33;;;1.80;;
6834;SDS011;3455;42.150;24.734;2023-04-03T02:27:47;1.20;;;1.20;;
6834;SDS011;3455;42.150;24.734;2023-04-03T02:30:14;1.40;;;1.30;;
6834;SDS011;3455;42.150;24.734;2023-04-03T02:32:41;2.27;;;1.40;;
6834;SDS011;3455;42.150;24.734;2023-04-03T02:35:08;1.70;;;1.60;;
6834;SDS011;3455;42.150;24.734;2023-04-03T02:37:36;1.50;;;1.40;;
6834;SDS011;3455;42.150;24.734;2023-04-03T02:40:03;1.10;;;1.10;;
6834;SDS011;3455;42.150;24.734;2023-04-03T02:42:32;1.40;;;1.30;;
6834;SDS011;3455;42.150;24.734;2023-04-03T02:44:59;1.83;;;1.67;;
6834;SDS011;3455;42.150;24.734;2023-04-03T02:47:26;2.23;;;1.60;;
6834;SDS011;3455;42.150;24.734;2023-04-03T02:49:53;3.00;;;1.50;;
6834;SDS011;3455;42.150;24.734;2023-04-03T02:52:19;1.73;;;1.57;;
6834;SDS011;3455;42.150;24.734;2023-04-03T02:54:47;2.00;;;1.80;;
6834;SDS011;3455;42.150;24.734;2023-04-03T02:57:13;1.70;;;1.60;;
6834;SDS011;3455;42.150;24.734;2023-04-03T02:59:41;2.20;;;1.67;;
6834;SDS011;3455;42.150;24.734;2023-04-03T03:02:09;2.10;;;1.77;;
6834;SDS011;3455;42.150;24.734;2023-04-03T03:04:36;1.93;;;1.83;;
6834;SDS011;3455;42.150;24.734;2023-04-03T03:07:03;1.67;;;1.57;;
6834;SDS011;3455;42.150;24.734;2023-04-03T03:09:30;1.73;;;1.63;;
6834;SDS011;3455;42.150;24.734;2023-04-03T03:11:57;2.03;;;1.50;;
6834;SDS011;3455;42.150;24.734;2023-04-03T03:14:24;1.80;;;1.70;;
6834;SDS011;3455;42.150;24.734;2023-04-03T03:16:52;1.53;;;1.43;;
6834;SDS011;3455;42.150;24.734;2023-04-03T03:19:18;1.50;;;1.40;;
6834;SDS011;3455;42.150;24.734;2023-04-03T03:21:45;1.57;;;1.40;;
6834;SDS011;3455;42.150;24.734;2023-04-03T03:24:12;4.10;;;2.00;;
6834;SDS011;3455;42.150;24.734;2023-04-03T03:26:40;5.93;;;1.70;;
6834;SDS011;3455;42.150;24.734;2023-04-03T03:29:07;1.87;;;1.77;;
6834;SDS011;3455;42.150;24.734;2023-04-03T03:31:34;3.00;;;1.60;;
6834;SDS011;3455;42.150;24.734;2023-04-03T03:34:02;2.97;;;2.77;;
6834;SDS011;3455;42.150;24.734;2023-04-03T03:36:29;3.10;;;2.90;;
6834;SDS011;3455;42.150;24.734;2023-04-03T03:38:56;4.53;;;3.00;;
6834;SDS011;3455;42.150;24.734;2023-04-03T03:41:23;4.27;;;2.27;;
6834;SDS011;3455;42.150;24.734;2023-04-03T03:43:50;4.73;;;2.50;;
6834;SDS011;3455;42.150;24.734;2023-04-03T03:46:16;2.70;;;2.50;;
6834;SDS011;3455;42.150;24.734;2023-04-03T03:48:43;3.80;;;2.50;;
6834;SDS011;3455;42.150;24.734;2023-04-03T03:51:11;6.17;;;2.50;;
6834;SDS011;3455;42.150;24.734;2023-04-03T03:53:38;4.63;;;2.97;;
6834;SDS011;3455;42.150;24.734;2023-04-03T03:56:05;6.07;;;2.70;;
6834;SDS011;3455;42.150;24.734;2023-04-03T03:58:32;4.20;;;3.50;;
6834;SDS011;3455;42.150;24.734;2023-04-03T04:01:00;7.07;;;3.63;;
6834;SDS011;3455;42.150;24.734;2023-04-03T04:03:27;7.23;;;3.23;;
6834;SDS011;3455;42.150;24.734;2023-04-03T04:05:54;3.63;;;3.23;;
6834;SDS011;3455;42.150;24.734;2023-04-03T04:08:22;4.30;;;3.50;;
6834;SDS011;3455;42.150;24.734;2023-04-03T04:10:49;4.60;;;3.27;;
6834;SDS011;3455;42.150;24.734;2023-04-03T04:13:16;4.60;;;3.57;;
6834;SDS011;3455;42.150;24.734;2023-04-03T04:15:43;5.00;;;4.50;;
6834;SDS011;3455;42.150;24.734;2023-04-03T04:18:09;7.13;;;3.50;;
6834;SDS011;3455;42.150;24.734;2023-04-03T04:20:36;7.50;;;3.50;;
6834;SDS011;3455;42.150;24.734;2023-04-03T04:23:03;5.90;;;3.10;;
6834;SDS011;3455;42.150;24.734;2023-04-03T04:25:31;5.27;;;3.30;;
6834;SDS011;3455;42.150;24.734;2023-04-03T04:27:58;3.63;;;3.20;;
6834;SDS011;3455;42.150;24.734;2023-04-03T04:30:24;4.60;;;3.63;;
6834;SDS011;3455;42.150;24.734;2023-04-03T04:32:52;6.27;;;3.87;;
6834;SDS011;3455;42.150;24.734;2023-04-03T04:35:19;5.63;;;3.97;;
6834;SDS011;3455;42.150;24.734;2023-04-03T04:37:46;6.87;;;3.87;;
6834;SDS011;3455;42.150;24.734;2023-04-03T04:40:12;7.67;;;3.90;;
6834;SDS011;3455;42.150;24.734;2023-04-03T04:42:41;3.83;;;3.53;;
6834;SDS011;3455;42.150;24.734;2023-04-03T04:45:07;5.83;;;3.70;;
6834;SDS011;3455;42.150;24.734;2023-04-03T04:47:35;5.07;;;3.80;;
6834;SDS011;3455;42.150;24.734;2023-04-03T04:50:02;10.13;;;3.90;;
6834;SDS011;3455;42.150;24.734;2023-04-03T04:52:28;7.27;;;5.03;;
6834;SDS011;3455;42.150;24.734;2023-04-03T04:54:55;20.53;;;9.67;;
6834;SDS011;3455;42.150;24.734;2023-04-03T04:57:22;16.77;;;9.73;;
6834;SDS011;3455;42.150;24.734;2023-04-03T04:59:50;10.90;;;6.13;;
6834;SDS011;3455;42.150;24.734;2023-04-03T05:02:17;9.63;;;6.30;;
6834;SDS011;3455;42.150;24.734;2023-04-03T05:04:43;8.47;;;5.57;;
6834;SDS011;3455;42.150;24.734;2023-04-03T05:07:10;12.33;;;5.13;;
6834;SDS011;3455;42.150;24.734;2023-04-03T05:09:37;14.90;;;7.90;;
6834;SDS011;3455;42.150;24.734;2023-04-03T05:12:06;5.00;;;4.37;;
6834;SDS011;3455;42.150;24.734;2023-04-03T05:14:33;15.77;;;8.00;;
6834;SDS011;3455;42.150;24.734;2023-04-03T05:17:01;14.83;;;8.80;;
6834;SDS011;3455;42.150;24.734;2023-04-03T05:19:28;9.63;;;4.67;;
6834;SDS011;3455;42.150;24.734;2023-04-03T05:21:54;11.07;;;7.50;;
6834;SDS011;3455;42.150;24.734;2023-04-03T05:24:21;5.17;;;4.73;;
6834;SDS011;3455;42.150;24.734;2023-04-03T05:26:48;13.87;;;6.30;;
6834;SDS011;3455;42.150;24.734;2023-04-03T05:29:15;16.30;;;7.57;;
6834;SDS011;3455;42.150;24.734;2023-04-03T05:31:41;15.97;;;6.33;;
6834;SDS011;3455;42.150;24.734;2023-04-03T05:34:11;10.53;;;6.30;;
6834;SDS011;3455;42.150;24.734;2023-04-03T05:36:37;14.57;;;6.30;;
6834;SDS011;3455;42.150;24.734;2023-04-03T05:39:04;14.63;;;6.70;;
6834;SDS011;3455;42.150;24.734;2023-04-03T05:41:31;17.05;;;6.90;;
6834;SDS011;3455;42.150;24.734;2023-04-03T05:43:58;16.40;;;6.53;;
6834;SDS011;3455;42.150;24.734;2023-04-03T05:46:24;14.80;;;6.67;;
6834;SDS011;3455;42.150;24.734;2023-04-03T05:48:51;10.60;;;5.77;;
6834;SDS011;3455;42.150;24.734;2023-04-03T05:51:20;13.73;;;6.77;;
6834;SDS011;3455;42.150;24.734;2023-04-03T05:53:51;14.10;;;6.23;;
6834;SDS011;3455;42.150;24.734;2023-04-03T05:56:21;9.63;;;4.87;;
6834;SDS011;3455;42.150;24.734;2023-04-03T05:58:48;16.80;;;10.30;;
6834;SDS011;3455;42.150;24.734;2023-04-03T06:01:15;13.00;;;6.17;;
6834;SDS011;3455;42.150;24.734;2023-04-03T06:03:42;11.60;;;5.90;;
6834;SDS011;3455;42.150;24.734;2023-04-03T06:06:10;9.35;;;5.85;;
6834;SDS011;3455;42.150;24.734;2023-04-03T06:08:40;12.40;;;6.17;;
6834;SDS011;3455;42.150;24.734;2023-04-03T06:11:07;8.23;;;5.53;;
6834;SDS011;3455;42.150;24.734;2023-04-03T06:13:33;9.10;;;7.03;;
6834;SDS011;3455;42.150;24.734;2023-04-03T06:16:01;18.03;;;7.90;;
6834;SDS011;3455;42.150;24.734;2023-04-03T06:18:29;19.50;;;5.93;;
6834;SDS011;3455;42.150;24.734;2023-04-03T06:20:55;12.47;;;5.40;;
6834;SDS011;3455;42.150;24.734;2023-04-03T06:23:23;14.53;;;5.33;;
6834;SDS011;3455;42.150;24.734;2023-04-03T06:25:51;11.30;;;5.43;;
6834;SDS011;3455;42.150;24.734;2023-04-03T06:28:18;12.40;;;5.40;;
6834;SDS011;3455;42.150;24.734;2023-04-03T06:30:45;9.27;;;5.53;;
6834;SDS011;3455;42.150;24.734;2023-04-03T06:33:12;8.60;;;3.97;;
6834;SDS011;3455;42.150;24.734;2023-04-03T06:35:38;6.40;;;4.03;;
6834;SDS011;3455;42.150;24.734;2023-04-03T06:38:05;42.87;;;27.50;;
6834;SDS011;3455;42.150;24.734;2023-04-03T06:40:34;21.40;;;9.83;;
6834;SDS011;3455;42.150;24.734;2023-04-03T06:43:03;16.73;;;10.90;;
6834;SDS011;3455;42.150;24.734;2023-04-03T06:45:30;29.97;;;13.57;;
6834;SDS011;3455;42.150;24.734;2023-04-03T06:47:56;12.53;;;5.03;;
6834;SDS011;3455;42.150;24.734;2023-04-03T06:50:23;7.00;;;4.57;;
6834;SDS011;3455;42.150;24.734;2023-04-03T06:52:50;7.20;;;3.70;;
6834;SDS011;3455;42.150;24.734;2023-04-03T06:55:17;9.43;;;3.87;;
6834;SDS011;3455;42.150;24.734;2023-04-03T06:57:44;7.07;;;3.93;;
6834;SDS011;3455;42.150;24.734;2023-04-03T07:00:12;9.30;;;5.37;;
6834;SDS011;3455;42.150;24.734;2023-04-03T07:02:41;7.43;;;3.87;;
6834;SDS011;3455;42.150;24.734;2023-04-03T07:05:08;5.33;;;3.73;;
6834;SDS011;3455;42.150;24.734;2023-04-03T07:07:35;3.63;;;3.33;;
6834;SDS011;3455;42.150;24.734;2023-04-03T07:10:03;2.93;;;2.67;;
6834;SDS011;3455;42.150;24.734;2023-04-03T07:12:30;3.47;;;3.27;;
6834;SDS011;3455;42.150;24.734;2023-04-03T07:14:57;3.90;;;2.70;;
6834;SDS011;3455;42.150;24.734;2023-04-03T07:17:25;4.57;;;3.23;;
6834;SDS011;3455;42.150;24.734;2023-04-03T07:19:52;3.87;;;3.47;;
6834;SDS011;3455;42.150;24.734;2023-04-03T07:22:19;2.73;;;2.53;;
6834;SDS011;3455;42.150;24.734;2023-04-03T07:24:46;2.57;;;2.37;;
6834;SDS011;3455;42.150;24.734;2023-04-03T07:27:12;4.13;;;2.73;;
6834;SDS011;3455;42.150;24.734;2023-04-03T07:29:39;3.10;;;2.50;;
6834;SDS011;3455;42.150;24.734;2023-04-03T07:32:06;3.27;;;2.67;;
6834;SDS011;3455;42.150;24.734;2023-04-03T07:34:34;2.93;;;2.63;;
6834;SDS011;3455;42.150;24.734;2023-04-03T07:37:01;2.63;;;2.23;;
6834;SDS011;3455;42.150;24.734;2023-04-03T07:39:28;5.23;;;2.37;;
6834;SDS011;3455;42.150;24.734;2023-04-03T07:41:54;3.10;;;2.17;;
6834;SDS011;3455;42.150;24.734;2023-04-03T07:44:21;19.77;;;4.20;;
6834;SDS011;3455;42.150;24.734;2023-04-03T07:46:48;9.57;;;4.00;;
6834;SDS011;3455;42.150;24.734;2023-04-03T07:49:15;9.90;;;3.40;;
6834;SDS011;3455;42.150;24.734;2023-04-03T07:51:44;8.07;;;2.83;;
6834;SDS011;3455;42.150;24.734;2023-04-03T07:54:11;7.13;;;2.88;;
6834;SDS011;3455;42.150;24.734;2023-04-03T07:56:38;10.80;;;3.47;;
6834;SDS011;3455;42.150;24.734;2023-04-03T07:59:05;9.83;;;2.40;;
6834;SDS011;3455;42.150;24.734;2023-04-03T08:01:31;3.10;;;2.80;;
6834;SDS011;3455;42.150;24.734;2023-04-03T08:03:58;5.45;;;2.63;;
6834;SDS011;3455;42.150;24.734;2023-04-03T08:06:25;13.40;;;2.83;;
6834;SDS011;3455;42.150;24.734;2023-04-03T08:08:55;7.60;;;2.70;;
6834;SDS011;3455;42.150;24.734;2023-04-03T08:11:22;4.10;;;2.25;;
6834;SDS011;3455;42.150;24.734;2023-04-03T08:13:51;7.97;;;2.58;;
6834;SDS011;3455;42.150;24.734;2023-04-03T08:16:19;2.83;;;2.45;;
6834;SDS011;3455;42.150;24.734;2023-04-03T08:18:47;2.03;;;1.80;;
6834;SDS011;3455;42.150;24.734;2023-04-03T08:21:15;3.88;;;2.25;;
6834;SDS011;3455;42.150;24.734;2023-04-03T08:23:42;3.58;;;2.42;;
6834;SDS011;3455;42.150;24.734;2023-04-03T08:26:10;3.47;;;2.42;;
6834;SDS011;3455;42.150;24.734;2023-04-03T08:28:38;3.55;;;2.80;;
6834;SDS011;3455;42.150;24.734;2023-04-03T08:31:06;2.83;;;2.55;;
6834;SDS011;3455;42.150;24.734;2023-04-03T08:33:36;3.53;;;2.90;;
6834;SDS011;3455;42.150;24.734;2023-04-03T08:36:03;7.75;;;3.47;;
6834;SDS011;3455;42.150;24.734;2023-04-03T08:38:31;4.60;;;3.67;;
6834;SDS011;3455;42.150;24.734;2023-04-03T08:41:04;17.23;;;6.68;;
6834;SDS011;3455;42.150;24.734;2023-04-03T08:43:43;8.60;;;4.75;;
6834;SDS011;3455;42.150;24.734;2023-04-03T08:46:22;12.05;;;5.82;;
6834;SDS011;3455;42.150;24.734;2023-04-03T08:48:52;12.32;;;7.00;;
6834;SDS011;3455;42.150;24.734;2023-04-03T08:51:20;10.10;;;6.80;;
6834;SDS011;3455;42.150;24.734;2023-04-03T08:53:55;10.05;;;6.43;;
6834;SDS011;3455;42.150;24.734;2023-04-03T08:56:27;8.20;;;4.70;;
6834;SDS011;3455;42.150;24.734;2023-04-03T08:58:58;9.63;;;5.72;;
6834;SDS011;3455;42.150;24.734;2023-04-03T09:01:29;6.23;;;4.57;;
6834;SDS011;3455;42.150;24.734;2023-04-03T09:04:00;5.50;;;5.00;;
6834;SDS011;3455;42.150;24.734;2023-04-03T09:06:29;8.33;;;4.00;;
6834;SDS011;3455;42.150;24.734;2023-04-03T09:09:02;3.73;;;3.43;;
6834;SDS011;3455;42.150;24.734;2023-04-03T09:11:41;6.13;;;3.43;;
6834;SDS011;3455;42.150;24.734;2023-04-03T09:14:15;4.07;;;3.10;;
6834;SDS011;3455;42.150;24.734;2023-04-03T09:16:48;4.33;;;2.70;;
6834;SDS011;3455;42.150;24.734;2023-04-03T09:19:20;7.43;;;3.27;;
6834;SDS011;3455;42.150;24.734;2023-04-03T09:21:56;4.87;;;3.83;;
6834;SDS011;3455;42.150;24.734;2023-04-03T09:24:24;3.80;;;3.33;;
6834;SDS011;3455;42.150;24.734;2023-04-03T09:26:53;4.07;;;3.40;;
6834;SDS011;3455;42.150;24.734;2023-04-03T09:29:25;5.87;;;4.40;;
6834;SDS011;3455;42.150;24.734;2023-04-03T09:31:54;5.27;;;4.23;;
6834;SDS011;3455;42.150;24.734;2023-04-03T09:34:25;5.13;;;3.90;;
6834;SDS011;3455;42.150;24.734;2023-04-03T09:36:54;7.57;;;4.13;;
6834;SDS011;3455;42.150;24.734;2023-04-03T09:39:24;5.23;;;4.23;;
6834;SDS011;3455;42.150;24.734;2023-04-03T09:41:56;3.47;;;3.23;;
6834;SDS011;3455;42.150;24.734;2023-04-03T09:44:29;3.30;;;2.10;;
6834;SDS011;3455;42.150;24.734;2023-04-03T09:46:57;4.77;;;4.03;;
6834;SDS011;3455;42.150;24.734;2023-04-03T09:49:25;5.67;;;5.13;;
6834;SDS011;3455;42.150;24.734;2023-04-03T09:51:52;4.60;;;4.07;;
6834;SDS011;3455;42.150;24.734;2023-04-03T09:54:35;4.40;;;3.67;;
6834;SDS011;3455;42.150;24.734;2023-04-03T09:57:06;4.63;;;3.87;;
6834;SDS011;3455;42.150;24.734;2023-04-03T09:59:41;7.37;;;3.10;;
6834;SDS011;3455;42.150;24.734;2023-04-03T10:02:22;4.10;;;2.30;;
6834;SDS011;3455;42.150;24.734;2023-04-03T10:04:58;3.27;;;2.47;;
6834;SDS011;3455;42.150;24.734;2023-04-03T10:07:29;2.50;;;2.30;;
6834;SDS011;3455;42.150;24.734;2023-04-03T10:09:59;2.73;;;2.53;;
6834;SDS011;3455;42.150;24.734;2023-04-03T10:12:28;2.10;;;2.00;;
6834;SDS011;3455;42.150;24.734;2023-04-03T10:14:56;3.60;;;2.63;;
6834;SDS011;3455;42.150;24.734;2023-04-03T10:17:37;2.50;;;2.30;;
6834;SDS011;3455;42.150;24.734;2023-04-03T10:20:21;2.30;;;2.10;;
6834;SDS011;3455;42.150;24.734;2023-04-03T10:22:56;2.10;;;2.00;;
6834;SDS011;3455;42.150;24.734;2023-04-03T10:25:30;2.97;;;2.50;;
6834;SDS011;3455;42.150;24.734;2023-04-03T10:28:05;3.20;;;2.83;;
6834;SDS011;3455;42.150;24.734;2023-04-03T10:30:40;2.27;;;2.17;;
6834;SDS011;3455;42.150;24.734;2023-04-03T10:33:18;2.97;;;2.40;;
6834;SDS011;3455;42.150;24.734;2023-04-03T10:35:53;3.07;;;2.77;;
6834;SDS011;3455;42.150;24.734;2023-04-03T10:38:31;2.70;;;2.50;;
6834;SDS011;3455;42.150;24.734;2023-04-03T10:41:04;2.87;;;2.67;;
6834;SDS011;3455;42.150;24.734;2023-04-03T10:43:40;3.33;;;2.87;;
6834;SDS011;3455;42.150;24.734;2023-04-03T10:46:13;3.20;;;2.90;;
6834;SDS011;3455;42.150;24.734;2023-04-03T10:48:52;2.67;;;2.40;;
6834;SDS011;3455;42.150;24.734;2023-04-03T10:51:33;3.13;;;2.90;;
6834;SDS011;3455;42.150;24.734;2023-04-03T10:54:08;3.33;;;2.73;;
6834;SDS011;3455;42.150;24.734;2023-04-03T10:56:39;3.60;;;2.23;;
6834;SDS011;3455;42.150;24.734;2023-04-03T10:59:13;5.47;;;2.87;;
6834;SDS011;3455;42.150;24.734;2023-04-03T11:01:46;2.83;;;2.63;;
6834;SDS011;3455;42.150;24.734;2023-04-03T11:04:17;5.43;;;4.57;;
6834;SDS011;3455;42.150;24.734;2023-04-03T11:06:47;7.00;;;6.20;;
6834;SDS011;3455;42.150;24.734;2023-04-03T11:09:19;11.23;;;10.20;;
6834;SDS011;3455;42.150;24.734;2023-04-03T11:11:51;4.40;;;4.10;;
6834;SDS011;3455;42.150;24.734;2023-04-03T11:14:24;3.90;;;3.40;;
6834;SDS011;3455;42.150;24.734;2023-04-03T11:17:01;3.37;;;3.07;;
6834;SDS011;3455;42.150;24.734;2023-04-03T11:19:38;3.23;;;3.03;;
6834;SDS011;3455;42.150;24.734;2023-04-03T11:22:10;2.70;;;2.50;;
6834;SDS011;3455;42.150;24.734;2023-04-03T11:24:43;3.13;;;2.33;;
6834;SDS011;3455;42.150;24.734;2023-04-03T11:27:19;3.40;;;2.27;;
6834;SDS011;3455;42.150;24.734;2023-04-03T11:29:50;2.20;;;2.10;;
6834;SDS011;3455;42.150;24.734;2023-04-03T11:32:29;2.80;;;2.60;;
6834;SDS011;3455;42.150;24.734;2023-04-03T11:35:17;3.17;;;2.97;;
6834;SDS011;3455;42.150;24.734;2023-04-03T11:37:45;3.80;;;3.43;;
6834;SDS011;3455;42.150;24.734;2023-04-03T11:40:22;4.53;;;4.20;;
6834;SDS011;3455;42.150;24.734;2023-04-03T11:42:52;8.40;;;6.90;;
6834;SDS011;3455;42.150;24.734;2023-04-03T11:45:24;6.77;;;5.77;;
6834;SDS011;3455;42.150;24.734;2023-04-03T11:47:58;7.60;;;6.10;;
6834;SDS011;3455;42.150;24.734;2023-04-03T11:50:40;6.23;;;5.40;;
6834;SDS011;3455;42.150;24.734;2023-04-03T11:53:28;6.47;;;5.87;;
6834;SDS011;3455;42.150;24.734;2023-04-03T11:56:01;7.53;;;5.80;;
6834;SDS011;3455;42.150;24.734;2023-04-03T11:58:30;5.33;;;4.80;;
6834;SDS011;3455;42.150;24.734;2023-04-03T12:01:05;5.33;;;4.57;;
6834;SDS011;3455;42.150;24.734;2023-04-03T12:09:28;7.23;;;6.60;;
6834;SDS011;3455;42.150;24.734;2023-04-03T12:12:01;29.60;;;17.57;;
6834;SDS011;3455;42.150;24.734;2023-04-03T12:14:46;17.63;;;12.10;;
6834;SDS011;3455;42.150;24.734;2023-04-03T12:17:18;6.53;;;6.03;;
6834;SDS011;3455;42.150;24.734;2023-04-03T12:19:48;5.10;;;4.60;;
6834;SDS011;3455;42.150;24.734;2023-04-03T12:22:18;5.67;;;5.17;;
6834;SDS011;3455;42.150;24.734;2023-04-03T12:24:47;5.33;;;5.00;;
6834;SDS011;3455;42.150;24.734;2023-04-03T12:27:22;6.17;;;5.70;;
6834;SDS011;3455;42.150;24.734;2023-04-03T12:29:53;5.40;;;4.87;;
6834;SDS011;3455;42.150;24.734;2023-04-03T12:32:29;18.20;;;10.03;;
6834;SDS011;3455;42.150;24.734;2023-04-03T12:35:10;35.17;;;18.50;;
6834;SDS011;3455;42.150;24.734;2023-04-03T12:40:51;89.83;;;41.07;;
6834;SDS011;3455;42.150;24.734;2023-04-03T12:46:15;34.67;;;16.63;;
6834;SDS011;3455;42.150;24.734;2023-04-03T12:48:47;165.10;;;73.40;;
6834;SDS011;3455;42.150;24.734;2023-04-03T12:51:17;148.30;;;72.33;;
6834;SDS011;3455;42.150;24.734;2023-04-03T12:53:48;8.80;;;6.47;;
6834;SDS011;3455;42.150;24.734;2023-04-03T12:56:23;76.57;;;42.17;;
6834;SDS011;3455;42.150;24.734;2023-04-03T12:58:52;8.60;;;7.30;;
6834;SDS011;3455;42.150;24.734;2023-04-03T13:01:20;13.70;;;9.67;;
6834;SDS011;3455;42.150;24.734;2023-04-03T13:03:49;5.73;;;5.23;;
6834;SDS011;3455;42.150;24.734;2023-04-03T13:06:19;8.40;;;5.10;;
6834;SDS011;3455;42.150;24.734;2023-04-03T13:08:49;5.70;;;5.20;;
6834;SDS011;3455;42.150;24.734;2023-04-03T13:11:18;5.40;;;4.90;;
6834;SDS011;3455;42.150;24.734;2023-04-03T13:13:55;5.77;;;5.33;;
6834;SDS011;3455;42.150;24.734;2023-04-03T13:16:24;9.20;;;7.73;;
6834;SDS011;3455;42.150;24.734;2023-04-03T13:18:52;9.73;;;8.23;;
6834;SDS011;3455;42.150;24.734;2023-04-03T13:21:21;8.43;;;7.67;;
6834;SDS011;3455;42.150;24.734;2023-04-03T13:23:52;9.87;;;8.87;;
6834;SDS011;3455;42.150;24.734;2023-04-03T13:26:21;11.77;;;9.67;;
6834;SDS011;3455;42.150;24.734;2023-04-03T13:28:51;12.90;;;8.60;;
6834;SDS011;3455;42.150;24.734;2023-04-03T13:31:22;8.63;;;7.93;;
6834;SDS011;3455;42.150;24.734;2023-04-03T13:33:55;8.87;;;8.13;;
6834;SDS011;3455;42.150;24.734;2023-04-03T13:36:25;9.50;;;8.70;;
6834;SDS011;3455;42.150;24.734;2023-04-03T13:38:59;10.27;;;7.97;;
6834;SDS011;3455;42.150;24.734;2023-04-03T13:41:33;10.10;;;7.63;;
6834;SDS011;3455;42.150;24.734;2023-04-03T13:44:15;9.90;;;7.70;;
6834;SDS011;3455;42.150;24.734;2023-04-03T13:46:45;11.43;;;9.60;;
6834;SDS011;3455;42.150;24.734;2023-04-03T13:49:19;16.37;;;9.43;;
6834;SDS011;3455;42.150;24.734;2023-04-03T13:51:47;10.90;;;8.57;;
6834;SDS011;3455;42.150;24.734;2023-04-03T13:54:18;9.93;;;7.87;;
6834;SDS011;3455;42.150;24.734;2023-04-03T13:56:52;9.30;;;8.40;;
6834;SDS011;3455;42.150;24.734;2023-04-03T13:59:22;10.50;;;8.80;;
6834;SDS011;3455;42.150;24.734;2023-04-03T14:01:52;10.20;;;8.73;;
6834;SDS011;3455;42.150;24.734;2023-04-03T14:04:21;12.33;;;10.57;;
6834;SDS011;3455;42.150;24.734;2023-04-03T14:06:50;18.60;;;11.90;;
6834;SDS011;3455;42.150;24.734;2023-04-03T14:09:18;14.93;;;11.40;;
6834;SDS011;3455;42.150;24.734;2023-04-03T14:11:46;13.37;;;10.83;;
6834;SDS011;3455;42.150;24.734;2023-04-03T14:14:15;12.57;;;11.03;;
6834;SDS011;3455;42.150;24.734;2023-04-03T14:16:46;11.83;;;10.70;;
6834;SDS011;3455;42.150;24.734;2023-04-03T14:19:19;11.40;;;10.57;;
6834;SDS011;3455;42.150;24.734;2023-04-03T14:21:48;12.93;;;11.63;;
6834;SDS011;3455;42.150;24.734;2023-04-03T14:24:16;15.10;;;10.83;;
6834;SDS011;3455;42.150;24.734;2023-04-03T14:26:44;13.23;;;12.03;;
6834;SDS011;3455;42.150;24.734;2023-04-03T14:29:11;11.23;;;9.93;;
6834;SDS011;3455;42.150;24.734;2023-04-03T14:31:40;10.20;;;9.10;;
6834;SDS011;3455;42.150;24.734;2023-04-03T14:34:09;13.70;;;10.17;;
6834;SDS011;3455;42.150;24.734;2023-04-03T14:36:38;9.83;;;8.77;;
6834;SDS011;3455;42.150;24.734;2023-04-03T14:39:07;9.93;;;8.97;;
6834;SDS011;3455;42.150;24.734;2023-04-03T14:41:37;13.03;;;11.90;;
6834;SDS011;3455;42.150;24.734;2023-04-03T14:44:03;9.03;;;8.40;;
6834;SDS011;3455;42.150;24.734;2023-04-03T14:46:33;11.57;;;10.47;;
6834;SDS011;3455;42.150;24.734;2023-04-03T14:49:02;11.00;;;10.00;;
6834;SDS011;3455;42.150;24.734;2023-04-03T14:51:32;12.20;;;11.07;;
6834;SDS011;3455;42.150;24.734;2023-04-03T14:54:01;13.67;;;12.27;;
6834;SDS011;3455;42.150;24.734;2023-04-03T14:56:28;13.73;;;12.33;;
6834;SDS011;3455;42.150;24.734;2023-04-03T14:58:56;14.13;;;12.73;;
6834;SDS011;3455;42.150;24.734;2023-04-03T15:01:25;12.63;;;11.33;;
6834;SDS011;3455;42.150;24.734;2023-04-03T15:03:52;16.00;;;12.80;;
6834;SDS011;3455;42.150;24.734;2023-04-03T15:06:19;12.90;;;11.70;;
6834;SDS011;3455;42.150;24.734;2023-04-03T15:08:47;12.17;;;10.93;;
6834;SDS011;3455;42.150;24.734;2023-04-03T15:11:17;12.20;;;10.57;;
6834;SDS011;3455;42.150;24.734;2023-04-03T15:13:44;11.60;;;10.50;;
6834;SDS011;3455;42.150;24.734;2023-04-03T15:16:12;11.47;;;10.27;;
6834;SDS011;3455;42.150;24.734;2023-04-03T15:18:41;12.60;;;10.57;;
6834;SDS011;3455;42.150;24.734;2023-04-03T15:21:09;12.40;;;11.17;;
6834;SDS011;3455;42.150;24.734;2023-04-03T15:23:36;12.30;;;11.10;;